createdAt,value
2023-03-03T00:00:06.466Z,2.83
2023-03-03T00:02:33.676Z,4.40
2023-03-03T00:05:00.535Z,4.63
2023-03-03T00:07:27.428Z,4.07
2023-03-03T00:09:54.312Z,5.60
2023-03-03T00:12:30.201Z,3.27
2023-03-03T00:14:57.471Z,4.83
2023-03-03T00:17:27.915Z,4.13
2023-03-03T00:19:55.016Z,5.63
2023-03-03T00:22:36.072Z,4.17
2023-03-03T00:25:29.021Z,4.43
2023-03-03T00:27:56.614Z,2.40
2023-03-03T00:30:28.170Z,5.20
2023-03-03T00:32:56.256Z,3.60
2023-03-03T00:35:38.727Z,5.13
2023-03-03T00:38:18.435Z,4.30
2023-03-03T00:40:46.643Z,4.87
2023-03-03T00:43:19.350Z,3.73
2023-03-03T00:45:48.854Z,5.00
2023-03-03T00:48:38.332Z,4.27
2023-03-03T00:51:23.183Z,5.80
2023-03-03T00:53:50.916Z,4.77
2023-03-03T00:56:17.806Z,7.20
2023-03-03T00:58:46.455Z,4.37
2023-03-03T01:01:13.503Z,4.13
2023-03-03T01:03:40.730Z,4.77
2023-03-03T01:06:08.239Z,4.57
2023-03-03T01:08:35.264Z,4.80
2023-03-03T01:11:19.939Z,3.97
2023-03-03T01:13:49.865Z,5.47
2023-03-03T01:16:17.379Z,3.13
2023-03-03T01:18:44.603Z,3.70
2023-03-03T01:21:12.543Z,3.07
2023-03-03T01:23:39.724Z,4.57
2023-03-03T01:26:06.947Z,4.30
2023-03-03T01:28:34.535Z,5.40
2023-03-03T01:31:04.136Z,4.97
2023-03-03T01:33:31.851Z,2.90
2023-03-03T01:35:59.180Z,4.83
2023-03-03T01:38:26.470Z,5.20
2023-03-03T01:40:55.573Z,3.07
2023-03-03T01:43:23.250Z,4.83
2023-03-03T01:45:50.132Z,3.20
2023-03-03T01:48:23.280Z,4.97
2023-03-03T01:51:01.218Z,4.00
2023-03-03T01:53:51.320Z,2.53
2023-03-03T01:56:18.475Z,3.63
2023-03-03T01:58:51.308Z,4.67
2023-03-03T02:01:21.967Z,3.70
2023-03-03T02:03:48.926Z,4.47
2023-03-03T02:06:22.882Z,4.53
2023-03-03T02:08:54.208Z,4.57
2023-03-03T02:11:23.021Z,3.83
2023-03-03T02:13:50.659Z,5.77
2023-03-03T02:16:17.628Z,3.13
2023-03-03T02:18:44.948Z,4.90
2023-03-03T02:21:17.889Z,3.87
2023-03-03T02:24:03.473Z,3.47
2023-03-03T02:26:34.103Z,4.03
2023-03-03T02:29:01.030Z,4.77
2023-03-03T02:31:30.699Z,5.80
2023-03-03T02:33:58.847Z,3.40
2023-03-03T02:36:32.379Z,6.00
2023-03-03T02:39:03.669Z,6.07
2023-03-03T02:42:01.747Z,3.77
2023-03-03T02:44:31.680Z,2.43
2023-03-03T02:46:59.860Z,4.53
2023-03-03T02:49:32.303Z,4.40
2023-03-03T02:52:00.540Z,4.13
2023-03-03T02:54:31.010Z,4.90
2023-03-03T02:56:59.625Z,2.20
2023-03-03T02:59:26.655Z,3.80
2023-03-03T03:01:53.547Z,3.47
2023-03-03T03:04:23.609Z,4.57
2023-03-03T03:06:51.566Z,3.13
2023-03-03T03:09:19.912Z,4.80
2023-03-03T03:11:46.998Z,4.83
2023-03-03T03:14:15.212Z,4.07
2023-03-03T03:16:42.254Z,3.37
2023-03-03T03:19:09.555Z,3.27
2023-03-03T03:21:36.414Z,5.03
2023-03-03T03:24:03.296Z,3.83
2023-03-03T03:26:30.204Z,3.23
2023-03-03T03:28:57.134Z,3.33
2023-03-03T03:31:25.840Z,3.10
2023-03-03T03:33:53.038Z,3.67
2023-03-03T03:36:20.035Z,3.77
2023-03-03T03:38:46.867Z,2.90
2023-03-03T03:41:13.962Z,4.03
2023-03-03T03:43:41.254Z,2.87
2023-03-03T03:46:08.695Z,3.33
2023-03-03T03:48:36.118Z,5.07
2023-03-03T03:51:03.352Z,5.93
2023-03-03T03:53:30.207Z,3.23
2023-03-03T03:55:57.103Z,3.83
2023-03-03T03:58:24.154Z,3.40
2023-03-03T04:00:51.227Z,3.97
2023-03-03T04:03:18.220Z,1.63
2023-03-03T04:05:45.221Z,4.30
2023-03-03T04:08:12.169Z,2.77
2023-03-03T04:10:39.361Z,3.23
2023-03-03T04:13:06.469Z,2.23
2023-03-03T04:15:33.282Z,4.40
2023-03-03T04:18:00.359Z,1.67
2023-03-03T04:20:27.434Z,4.40
2023-03-03T04:22:54.494Z,3.40
2023-03-03T04:25:21.506Z,2.73
2023-03-03T04:27:48.510Z,2.73
2023-03-03T04:30:16.189Z,4.00
2023-03-03T04:32:43.530Z,2.53
2023-03-03T04:35:11.316Z,3.40
2023-03-03T04:37:39.092Z,4.33
2023-03-03T04:40:07.965Z,2.10
2023-03-03T04:42:35.501Z,4.70
2023-03-03T04:45:02.630Z,2.63
2023-03-03T04:47:29.535Z,2.73
2023-03-03T04:49:56.385Z,3.80
2023-03-03T04:52:23.211Z,3.40
2023-03-03T04:54:50.157Z,3.80
2023-03-03T04:57:16.972Z,3.97
2023-03-03T04:59:43.866Z,2.33
2023-03-03T05:02:11.038Z,3.00
2023-03-03T05:04:37.934Z,4.17
2023-03-03T05:07:05.014Z,2.20
2023-03-03T05:09:31.861Z,2.53
2023-03-03T05:11:58.730Z,1.07
2023-03-03T05:14:26.768Z,2.33
2023-03-03T05:16:53.855Z,3.10
2023-03-03T05:19:20.702Z,2.00
2023-03-03T05:21:47.520Z,2.23
2023-03-03T05:24:14.959Z,3.03
2023-03-03T05:26:42.331Z,2.20
2023-03-03T05:29:10.020Z,3.30
2023-03-03T05:31:37.644Z,1.53
2023-03-03T05:34:04.619Z,2.73
2023-03-03T05:36:31.543Z,3.63
2023-03-03T05:38:58.489Z,2.30
2023-03-03T05:41:25.507Z,2.60
2023-03-03T05:43:52.349Z,3.57
2023-03-03T05:46:19.282Z,3.63
2023-03-03T05:48:46.146Z,2.83
2023-03-03T05:51:13.064Z,2.27
2023-03-03T05:53:40.103Z,2.10
2023-03-03T05:56:07.588Z,2.77
2023-03-03T05:58:34.436Z,2.70
2023-03-03T06:01:01.261Z,2.83
2023-03-03T06:03:28.235Z,3.77
2023-03-03T06:05:55.028Z,3.07
2023-03-03T06:08:21.878Z,2.27
2023-03-03T06:10:48.668Z,1.67
2023-03-03T06:13:15.547Z,4.70
2023-03-03T06:15:42.489Z,4.30
2023-03-03T06:18:09.424Z,3.10
2023-03-03T06:20:36.746Z,2.17
2023-03-03T06:23:03.760Z,2.53
2023-03-03T06:25:30.574Z,2.80
2023-03-03T06:27:58.105Z,2.17
2023-03-03T06:30:27.109Z,2.73
2023-03-03T06:32:54.394Z,2.83
2023-03-03T06:35:21.260Z,2.87
2023-03-03T06:37:50.837Z,2.10
2023-03-03T06:40:17.981Z,1.97
2023-03-03T06:42:44.995Z,2.50
2023-03-03T06:45:12.146Z,1.97
2023-03-03T06:47:38.995Z,2.53
2023-03-03T06:50:06.573Z,2.60
2023-03-03T06:52:33.377Z,2.87
2023-03-03T06:55:10.068Z,2.33
2023-03-03T06:57:37.808Z,2.53
2023-03-03T07:00:18.000Z,1.63
2023-03-03T07:02:44.928Z,2.70
2023-03-03T07:05:16.281Z,2.27
2023-03-03T07:07:43.175Z,2.17
2023-03-03T07:10:22.775Z,2.00
2023-03-03T07:12:49.828Z,3.83
2023-03-03T07:15:30.315Z,1.97
2023-03-03T07:18:00.594Z,3.53
2023-03-03T07:20:35.379Z,2.53
2023-03-03T07:23:27.920Z,3.77
2023-03-03T07:25:55.317Z,2.87
2023-03-03T07:28:27.921Z,2.37
2023-03-03T07:30:57.347Z,3.17
2023-03-03T07:33:29.659Z,1.90
2023-03-03T07:35:59.047Z,2.47
2023-03-03T07:38:33.991Z,2.30
2023-03-03T07:41:05.389Z,3.00
2023-03-03T07:43:50.768Z,1.83
2023-03-03T07:46:30.893Z,2.87
2023-03-03T07:48:59.163Z,1.37
2023-03-03T07:51:39.647Z,3.80
2023-03-03T07:54:31.561Z,2.23
2023-03-03T07:57:27.037Z,3.07
2023-03-03T08:00:18.533Z,3.07
2023-03-03T08:03:03.606Z,2.33
2023-03-03T08:05:43.550Z,3.77
2023-03-03T08:08:10.402Z,3.00
2023-03-03T08:10:43.508Z,3.70
2023-03-03T08:13:20.179Z,2.73
2023-03-03T08:15:51.106Z,2.43
2023-03-03T08:18:39.957Z,4.63
2023-03-03T08:21:13.784Z,2.73
2023-03-03T08:23:40.738Z,3.80
2023-03-03T08:26:08.036Z,5.53
2023-03-03T08:28:35.305Z,2.97
2023-03-03T08:31:15.332Z,4.37
2023-03-03T08:33:46.717Z,4.20
2023-03-03T08:36:14.131Z,3.00
2023-03-03T08:38:41.618Z,3.30
2023-03-03T08:41:08.603Z,4.43
2023-03-03T08:43:35.544Z,2.83
2023-03-03T08:46:05.425Z,3.10
2023-03-03T08:48:33.423Z,6.10
2023-03-03T08:51:00.535Z,3.90
2023-03-03T08:53:28.958Z,4.77
2023-03-03T08:55:56.056Z,3.63
2023-03-03T08:58:33.507Z,3.67
2023-03-03T09:01:01.836Z,4.07
2023-03-03T09:03:28.757Z,3.17
2023-03-03T09:05:55.738Z,4.03
2023-03-03T09:08:22.559Z,2.90
2023-03-03T09:10:49.486Z,2.57
2023-03-03T09:13:21.736Z,3.60
2023-03-03T09:15:50.505Z,3.27
2023-03-03T09:18:19.221Z,2.87
2023-03-03T09:20:48.926Z,3.93
2023-03-03T09:23:35.029Z,3.97
2023-03-03T09:26:47.445Z,2.17
2023-03-03T09:29:14.178Z,4.30
2023-03-03T09:32:26.737Z,3.23
2023-03-03T09:34:53.772Z,3.33
2023-03-03T09:37:36.537Z,2.80
2023-03-03T09:40:42.360Z,2.63
2023-03-03T09:43:42.127Z,2.80
2023-03-03T09:46:36.249Z,1.73
2023-03-03T09:49:07.374Z,1.93
2023-03-03T09:51:52.000Z,2.33
2023-03-03T09:54:50.936Z,2.27
2023-03-03T09:57:26.079Z,2.33
2023-03-03T10:00:05.444Z,4.63
2023-03-03T10:02:44.293Z,2.47
2023-03-03T10:05:20.287Z,0.90
2023-03-03T10:08:02.049Z,2.93
2023-03-03T10:10:46.245Z,1.50
2023-03-03T10:13:15.922Z,1.70
2023-03-03T10:16:07.310Z,2.87
2023-03-03T10:18:49.720Z,2.47
2023-03-03T10:21:44.950Z,2.37
2023-03-03T10:24:43.669Z,1.43
2023-03-03T10:27:41.335Z,1.43
2023-03-03T10:30:11.430Z,2.83
2023-03-03T10:32:55.462Z,1.63
2023-03-03T10:35:56.907Z,2.10
2023-03-03T10:38:55.536Z,2.17
2023-03-03T10:41:48.193Z,1.23
2023-03-03T10:44:38.501Z,0.97
2023-03-03T10:47:11.319Z,1.70
2023-03-03T10:49:53.052Z,2.33
2023-03-03T10:52:36.585Z,1.30
2023-03-03T10:55:31.389Z,2.67
2023-03-03T10:58:45.370Z,2.73
2023-03-03T11:01:31.020Z,1.87
2023-03-03T11:04:12.734Z,1.07
2023-03-03T11:07:01.208Z,1.10
2023-03-03T11:09:35.238Z,1.47
2023-03-03T11:12:05.151Z,1.17
2023-03-03T11:15:20.792Z,2.00
2023-03-03T11:17:58.057Z,0.83
2023-03-03T11:20:50.994Z,1.77
2023-03-03T11:23:48.793Z,1.27
2023-03-03T11:26:56.857Z,2.33
2023-03-03T11:29:29.431Z,1.20
2023-03-03T11:32:16.055Z,1.27
2023-03-03T11:35:00.726Z,1.97
2023-03-03T11:37:42.719Z,0.90
2023-03-03T11:40:26.141Z,1.63
2023-03-03T11:43:29.923Z,2.03
2023-03-03T11:46:26.646Z,2.00
2023-03-03T11:49:15.604Z,1.53
2023-03-03T11:51:51.146Z,2.60
2023-03-03T11:54:22.269Z,2.70
2023-03-03T11:56:49.792Z,1.80
2023-03-03T11:59:42.671Z,1.60
2023-03-03T12:02:28.564Z,2.60
2023-03-03T12:05:36.536Z,2.17
2023-03-03T12:08:15.464Z,2.10
2023-03-03T12:11:03.004Z,1.77
2023-03-03T12:13:51.266Z,1.60
2023-03-03T12:16:21.345Z,1.93
2023-03-03T12:19:09.897Z,1.53
2023-03-03T12:21:48.636Z,2.00
2023-03-03T12:24:50.128Z,2.20
2023-03-03T12:27:32.792Z,2.23
2023-03-03T12:30:13.826Z,1.97
2023-03-03T12:33:01.875Z,2.20
2023-03-03T12:35:35.125Z,1.57
2023-03-03T12:38:23.925Z,2.77
2023-03-03T12:41:09.076Z,2.03
2023-03-03T12:43:54.176Z,2.37
2023-03-03T12:46:29.226Z,1.80
2023-03-03T12:48:56.386Z,3.17
2023-03-03T12:51:48.024Z,3.23
2023-03-03T12:54:17.650Z,2.03
2023-03-03T12:56:55.196Z,1.40
2023-03-03T12:59:33.899Z,1.77
2023-03-03T13:02:28.812Z,1.53
2023-03-03T13:05:31.175Z,1.53
2023-03-03T13:08:19.592Z,1.77
2023-03-03T13:10:53.308Z,1.60
2023-03-03T13:13:46.981Z,3.17
2023-03-03T13:16:22.192Z,2.27
2023-03-03T13:18:57.640Z,2.70
2023-03-03T13:21:36.829Z,1.90
2023-03-03T13:24:34.182Z,1.67
2023-03-03T13:27:08.096Z,1.07
2023-03-03T13:29:41.556Z,0.90
2023-03-03T13:32:23.846Z,1.40
2023-03-03T13:35:17.938Z,1.67
2023-03-03T13:37:55.018Z,1.50
2023-03-03T13:40:40.876Z,2.20
2023-03-03T13:43:19.842Z,1.17
2023-03-03T13:46:16.130Z,1.67
2023-03-03T13:48:55.173Z,1.00
2023-03-03T13:51:36.005Z,2.10
2023-03-03T13:54:05.708Z,1.60
2023-03-03T13:56:41.525Z,1.00
2023-03-03T13:59:32.823Z,1.30
2023-03-03T14:02:10.553Z,1.17
2023-03-03T14:04:48.376Z,1.00
2023-03-03T14:07:22.884Z,1.27
2023-03-03T14:10:22.056Z,1.77
2023-03-03T14:12:58.985Z,1.30
2023-03-03T14:15:30.749Z,1.20
2023-03-03T14:18:17.937Z,2.70
2023-03-03T14:20:49.818Z,2.70
2023-03-03T14:23:47.808Z,1.63
2023-03-03T14:26:16.011Z,2.13
2023-03-03T14:28:49.645Z,3.03
2023-03-03T14:31:26.644Z,1.43
2023-03-03T14:34:11.809Z,2.73
2023-03-03T14:36:43.539Z,2.30
2023-03-03T14:39:36.499Z,2.63
2023-03-03T14:42:13.544Z,1.97
2023-03-03T14:44:46.365Z,1.30
2023-03-03T14:47:21.992Z,3.40
2023-03-03T14:49:49.262Z,2.23
2023-03-03T14:52:16.087Z,2.97
2023-03-03T14:54:48.439Z,2.00
2023-03-03T14:57:33.770Z,1.97
2023-03-03T15:00:27.499Z,2.00
2023-03-03T15:03:09.020Z,2.67
2023-03-03T15:05:36.126Z,2.10
2023-03-03T15:08:05.996Z,2.53
2023-03-03T15:10:40.972Z,2.40
2023-03-03T15:13:20.120Z,1.97
2023-03-03T15:16:03.353Z,2.20
2023-03-03T15:18:32.784Z,1.47
2023-03-03T15:21:08.374Z,1.90
2023-03-03T15:23:44.436Z,2.37
2023-03-03T15:26:44.383Z,1.40
2023-03-03T15:29:23.318Z,2.33
2023-03-03T15:32:22.263Z,1.33
2023-03-03T15:35:00.095Z,2.83
2023-03-03T15:37:47.142Z,1.53
2023-03-03T15:40:13.971Z,2.30
2023-03-03T15:43:16.634Z,2.37
2023-03-03T15:45:56.047Z,1.87
2023-03-03T15:48:44.416Z,1.70
2023-03-03T15:51:23.757Z,2.77
2023-03-03T15:54:38.184Z,1.93
2023-03-03T15:57:17.609Z,1.93
2023-03-03T15:59:53.030Z,2.87
2023-03-03T16:02:37.053Z,3.47
2023-03-03T16:05:16.631Z,1.90
2023-03-03T16:07:55.331Z,2.77
2023-03-03T16:10:52.837Z,1.50
2023-03-03T16:13:40.294Z,2.47
2023-03-03T16:16:11.157Z,1.93
2023-03-03T16:18:43.891Z,2.30
2023-03-03T16:21:22.806Z,2.63
2023-03-03T16:23:59.849Z,2.97
2023-03-03T16:26:47.501Z,2.83
2023-03-03T16:29:28.386Z,3.73
2023-03-03T16:32:13.550Z,2.67
2023-03-03T16:35:02.918Z,1.70
2023-03-03T16:37:36.188Z,1.70
2023-03-03T16:40:23.244Z,3.37
2023-03-03T16:42:58.137Z,2.87
2023-03-03T16:45:30.146Z,4.37
2023-03-03T16:48:08.553Z,4.60
2023-03-03T16:51:09.692Z,4.37
2023-03-03T16:54:16.327Z,3.77
2023-03-03T16:56:57.004Z,3.47
2023-03-03T16:59:46.978Z,2.67
2023-03-03T17:02:39.598Z,4.03
2023-03-03T17:05:21.144Z,3.20
2023-03-03T17:08:12.792Z,4.70
2023-03-03T17:10:57.852Z,2.13
2023-03-03T17:13:52.152Z,3.27
2023-03-03T17:16:22.217Z,3.67
2023-03-03T17:19:18.656Z,3.50
2023-03-03T17:22:06.785Z,4.10
2023-03-03T17:24:43.620Z,2.77
2023-03-03T17:27:39.416Z,2.10
2023-03-03T17:30:15.600Z,2.43
2023-03-03T17:33:05.772Z,3.57
2023-03-03T17:36:02.059Z,4.23
2023-03-03T17:38:40.994Z,2.87
2023-03-03T17:41:33.179Z,3.47
2023-03-03T17:44:29.345Z,2.57
2023-03-03T17:47:10.191Z,2.37
2023-03-03T17:50:09.110Z,3.30
2023-03-03T17:52:48.841Z,3.30
2023-03-03T17:55:40.484Z,3.53
2023-03-03T17:58:49.955Z,2.23
2023-03-03T18:01:37.149Z,3.27
2023-03-03T18:04:36.038Z,3.17
2023-03-03T18:07:24.394Z,1.80
2023-03-03T18:10:09.448Z,4.83
2023-03-03T18:13:09.818Z,2.57
2023-03-03T18:16:09.180Z,3.40
2023-03-03T18:19:38.961Z,3.33
2023-03-03T18:22:12.346Z,4.33
2023-03-03T18:25:03.542Z,3.97
2023-03-03T18:27:35.995Z,2.60
2023-03-03T18:30:17.832Z,3.97
2023-03-03T18:33:01.918Z,4.90
2023-03-03T18:35:39.188Z,3.87
2023-03-03T18:38:18.001Z,3.07
2023-03-03T18:40:57.307Z,3.20
2023-03-03T18:43:42.977Z,4.60
2023-03-03T18:46:35.627Z,4.33
2023-03-03T18:49:10.071Z,4.10
2023-03-03T18:51:39.986Z,4.83
2023-03-03T18:54:12.593Z,2.93
2023-03-03T18:56:57.169Z,5.20
2023-03-03T18:59:36.442Z,3.80
2023-03-03T19:02:18.032Z,4.13
2023-03-03T19:05:08.639Z,3.90
2023-03-03T19:07:41.656Z,3.17
2023-03-03T19:10:20.364Z,4.27
2023-03-03T19:13:00.470Z,3.53
2023-03-03T19:15:31.033Z,2.97
2023-03-03T19:18:05.710Z,3.70
2023-03-03T19:20:51.142Z,5.30
2023-03-03T19:23:26.788Z,3.93
2023-03-03T19:26:24.666Z,4.50
2023-03-03T19:29:22.202Z,4.23
2023-03-03T19:32:04.021Z,4.47
2023-03-03T19:35:04.649Z,2.80
2023-03-03T19:37:46.508Z,3.27
2023-03-03T19:40:36.879Z,3.83
2023-03-03T19:43:46.672Z,4.27
2023-03-03T19:46:25.818Z,3.60
2023-03-03T19:49:28.226Z,2.17
2023-03-03T19:52:19.333Z,2.17
2023-03-03T19:55:16.338Z,3.97
2023-03-03T19:57:57.152Z,2.23
2023-03-03T20:00:29.578Z,3.57
2023-03-03T20:03:34.158Z,4.00
2023-03-03T20:06:17.180Z,2.73
2023-03-03T20:09:20.667Z,3.27
2023-03-03T20:11:56.053Z,2.80
2023-03-03T20:14:32.550Z,2.27
2023-03-03T20:17:27.648Z,2.90
2023-03-03T20:20:40.072Z,3.53
2023-03-03T20:23:11.717Z,3.40
2023-03-03T20:25:46.569Z,3.90
2023-03-03T20:28:35.276Z,3.53
2023-03-03T20:31:39.950Z,3.90
2023-03-03T20:34:20.604Z,3.53
2023-03-03T20:37:06.816Z,3.10
2023-03-03T20:40:27.221Z,3.30
2023-03-03T20:43:08.752Z,2.47
2023-03-03T20:45:54.282Z,3.60
2023-03-03T20:48:33.137Z,6.13
2023-03-03T20:51:23.032Z,3.00
2023-03-03T20:54:01.732Z,2.37
2023-03-03T20:56:42.464Z,2.27
2023-03-03T20:59:23.797Z,3.27
2023-03-03T21:01:53.767Z,4.03
2023-03-03T21:04:26.295Z,3.40
2023-03-03T21:06:53.717Z,3.83
2023-03-03T21:09:23.149Z,4.70
2023-03-03T21:11:50.013Z,5.97
2023-03-03T21:14:23.192Z,5.63
2023-03-03T21:16:52.706Z,7.40
2023-03-03T21:19:39.053Z,7.90
2023-03-03T21:22:06.020Z,15.27
2023-03-03T21:25:01.102Z,23.03
2023-03-03T21:27:33.123Z,10.53
2023-03-03T21:30:14.171Z,6.43
2023-03-03T21:32:45.917Z,6.87
2023-03-03T21:35:14.673Z,6.33
2023-03-03T21:37:56.488Z,5.00
2023-03-03T21:40:28.524Z,4.67
2023-03-03T21:42:58.927Z,6.33
2023-03-03T21:45:26.486Z,4.03
2023-03-03T21:47:59.788Z,6.40
2023-03-03T21:50:31.268Z,3.57
2023-03-03T21:52:58.197Z,3.00
2023-03-03T21:55:26.788Z,4.43
2023-03-03T21:57:53.736Z,4.43
2023-03-03T22:00:20.891Z,5.90
2023-03-03T22:02:47.739Z,5.83
2023-03-03T22:05:14.712Z,4.07
2023-03-03T22:07:41.549Z,4.60
2023-03-03T22:10:10.056Z,2.97
2023-03-03T22:12:36.984Z,3.43
2023-03-03T22:15:04.508Z,2.43
2023-03-03T22:17:31.300Z,2.53
2023-03-03T22:19:58.249Z,4.03
2023-03-03T22:22:25.140Z,2.83
2023-03-03T22:24:51.999Z,3.43
2023-03-03T22:27:18.926Z,5.80
2023-03-03T22:29:45.735Z,4.20
2023-03-03T22:32:12.651Z,3.83
2023-03-03T22:34:39.867Z,3.00
2023-03-03T22:37:06.648Z,5.20
2023-03-03T22:39:33.465Z,4.50
2023-03-03T22:42:00.293Z,5.03
2023-03-03T22:44:27.200Z,5.77
2023-03-03T22:46:54.052Z,3.73
2023-03-03T22:49:20.957Z,5.03
2023-03-03T22:51:47.757Z,6.07
2023-03-03T22:54:14.555Z,5.17
2023-03-03T22:56:41.499Z,6.03
2023-03-03T22:59:08.347Z,5.30
2023-03-03T23:01:35.209Z,4.03
2023-03-03T23:04:02.113Z,5.27
2023-03-03T23:06:28.974Z,4.93
2023-03-03T23:08:55.823Z,2.93
2023-03-03T23:11:24.695Z,4.73
2023-03-03T23:13:51.598Z,4.27
2023-03-03T23:16:18.467Z,6.57
2023-03-03T23:18:45.427Z,3.77
2023-03-03T23:21:12.451Z,4.00
2023-03-03T23:23:39.253Z,7.83
2023-03-03T23:26:06.303Z,4.27
2023-03-03T23:28:33.202Z,3.10
2023-03-03T23:31:00.266Z,5.03
2023-03-03T23:33:27.185Z,4.63
2023-03-03T23:35:54.227Z,4.57
2023-03-03T23:38:21.080Z,4.73
2023-03-03T23:40:47.911Z,5.43
2023-03-03T23:43:15.044Z,5.43
2023-03-03T23:45:41.991Z,5.33
2023-03-03T23:48:09.254Z,3.47
2023-03-03T23:50:39.358Z,3.73
2023-03-03T23:53:07.544Z,5.87
2023-03-03T23:55:35.116Z,4.33
2023-03-03T23:58:02.150Z,5.03
